Parma — V2OZ9 — position and weather

sailwx.info

Track history (hours):
 
Tides and Currents Weather Stations Pressure Air Temp Water Temp Dewpoint Dewpoint Depression Visibility Wind Speed Wind Dir Waves Ship Positions

Parma

Last reported at 2014-Jul-26 18:34 UTC. Time now 2014-Jul-26 19:17 UTC.
Position N 52°36' E 001°44'.

MMSI: 279073176.

Date/timePositionNaut miles runAvg speedWind from/ knotsBaromVisibWave heightAir tempDewpointWater temp
2014-Jul-26 18:34N 52°36' E 001°44'1 0.6
2014-Jul-26 17:33N 52°35' E 001°44'2 1.6
2014-Jul-26 16:34N 52°34' E 001°45'0 0.4
2014-Jul-26 15:31N 52°34' E 001°46'0 0.1
2014-Jul-26 14:31N 52°34' E 001°46'0 0.0
2014-Jul-26 13:31N 52°34' E 001°46'0 0.0
2014-Jul-26 12:31N 52°34' E 001°46'0 0.1
2014-Jul-26 11:28N 52°34' E 001°46'0 0.1
2014-Jul-26 10:31N 52°34' E 001°46'0 0.0
2014-Jul-26 09:31N 52°34' E 001°46'0 0.0
2014-Jul-26 08:31N 52°34' E 001°46'0 0.0
2014-Jul-26 07:31N 52°34' E 001°46'0 0.0
2014-Jul-26 06:31N 52°34' E 001°46'0 0.0
2014-Jul-26 05:31N 52°34' E 001°46'0 0.0
2014-Jul-26 04:31N 52°34' E 001°46'0 0.1
2014-Jul-26 03:31N 52°34' E 001°46'0 0.0
2014-Jul-26 02:31N 52°34' E 001°46'0 0.0
2014-Jul-26 01:31N 52°34' E 001°46'0 0.0
2014-Jul-26 00:31N 52°34' E 001°46'0 0.1
2014-Jul-25 23:31N 52°34' E 001°46'1 0.9
2014-Jul-25 22:34N 52°34' E 001°47'9 9.3
2014-Jul-25 21:33N 52°25' E 001°53'10 9.3
2014-Jul-25 20:26N 52°15' E 001°52'8 9.4
2014-Jul-25 19:33N 52°06' E 001°51'9 9.2
2014-Jul-25 18:33N 51°57' E 001°49'1010.4
2014-Jul-25 17:34N 51°47' E 001°49'1010.4
2014-Jul-25 16:34N 51°37' E 001°47'1211.6
2014-Jul-25 15:34N 51°29' E 001°34'6 6.3
2014-Jul-25 14:34N 51°25' E 001°25'0 0.0
2014-Jul-25 13:34N 51°25' E 001°25'0 0.1
2014-Jul-25 12:34N 51°25' E 001°25'0 0.1
2014-Jul-25 11:33N 51°25' E 001°25'0 0.0
2014-Jul-25 10:33N 51°25' E 001°25'0 0.0
2014-Jul-25 09:33N 51°25' E 001°25'0 0.0
2014-Jul-25 08:33N 51°25' E 001°25'0 0.0
2014-Jul-25 07:34N 51°25' E 001°25'0 0.0
2014-Jul-25 06:34N 51°25' E 001°25'0 0.0
2014-Jul-25 05:34N 51°25' E 001°25'0 0.1
2014-Jul-25 04:34N 51°25' E 001°25'0 0.0
2014-Jul-25 03:34N 51°25' E 001°25'0 0.0
2014-Jul-25 02:33N 51°25' E 001°25'0 0.0
2014-Jul-25 01:34N 51°25' E 001°25'0 0.0
2014-Jul-25 00:33N 51°25' E 001°25'0 0.1
2014-Jul-24 23:34N 51°25' E 001°25'0 0.1
2014-Jul-24 22:33N 51°25' E 001°25'0 0.0
2014-Jul-24 21:33N 51°25' E 001°25'0 0.0
2014-Jul-24 20:33N 51°25' E 001°25'0 0.0
2014-Jul-24 19:33N 51°25' E 001°25'0 0.0
2014-Jul-24 18:33N 51°25' E 001°25'0 0.0
2014-Jul-24 17:33N 51°25' E 001°25'0 0.0
2014-Jul-24 16:34N 51°25' E 001°25'0 0.1
2014-Jul-24 15:33N 51°25' E 001°25'0 0.0
2014-Jul-24 14:33N 51°25' E 001°25'0 0.0
2014-Jul-24 13:33N 51°25' E 001°25'0 0.0
2014-Jul-24 12:33N 51°25' E 001°25'0 0.1
2014-Jul-24 11:33N 51°25' E 001°25'0 0.1
2014-Jul-24 10:33N 51°25' E 001°25'0 0.0
2014-Jul-24 09:33N 51°25' E 001°25'0 0.0
2014-Jul-24 08:33N 51°25' E 001°25'0 0.1
2014-Jul-24 07:33N 51°25' E 001°25'0 0.0
2014-Jul-24 06:33N 51°25' E 001°25'0 0.0
2014-Jul-24 05:33N 51°25' E 001°25'0 0.0
2014-Jul-24 04:33N 51°25' E 001°25'0 0.1
2014-Jul-24 03:33N 51°25' E 001°25'0 0.1
2014-Jul-24 02:33N 51°25' E 001°25'0 0.0
2014-Jul-24 01:33N 51°25' E 001°25'0 0.0
2014-Jul-24 00:33N 51°25' E 001°25'0 0.1
2014-Jul-23 23:33N 51°25' E 001°25'0 0.1
2014-Jul-23 22:33N 51°25' E 001°25'0 0.0
2014-Jul-23 21:33N 51°25' E 001°25'0 0.0
2014-Jul-23 20:33N 51°25' E 001°25'0 0.0
2014-Jul-23 19:33N 51°25' E 001°25'0 0.0
2014-Jul-23 18:33N 51°25' E 001°25'0 0.0
2014-Jul-23 17:33N 51°25' E 001°25'0 0.0
2014-Jul-23 16:33N 51°25' E 001°25'0 0.0
2014-Jul-23 15:33N 51°25' E 001°25'0 0.1
2014-Jul-23 14:33N 51°25' E 001°25'0 0.0
2014-Jul-23 13:33N 51°25' E 001°25'3 2.5
2014-Jul-23 12:33N 51°27' E 001°26'1212.1
2014-Jul-23 11:34N 51°29' E 001°07'1010.1
2014-Jul-23 10:33N 51°29' E 000°51'6 6.0
2014-Jul-23 09:32N 51°24' E 000°45'1 0.4
2014-Jul-23 07:14N 51°23' E 000°46'0 0.0
2014-Jul-23 05:20N 51°23' E 000°46'0 0.0
2014-Jul-23 04:23N 51°23' E 000°46'0 0.0
2014-Jul-23 03:14N 51°23' E 000°46'0 0.0
2014-Jul-23 02:32N 51°23' E 000°46'0 0.0
2014-Jul-23 01:32N 51°23' E 000°46'0 0.0
2014-Jul-23 00:29N 51°23' E 000°46'0 0.0
2014-Jul-22 23:23N 51°23' E 000°46'0 0.0
2014-Jul-22 22:32N 51°23' E 000°46'0 0.0
2014-Jul-22 21:23N 51°23' E 000°46'0 0.0
2014-Jul-22 20:26N 51°23' E 000°46'0 0.0
2014-Jul-22 14:05N 51°23' E 000°46'0 0.0
2014-Jul-22 10:23N 51°23' E 000°46'0 0.0
2014-Jul-22 08:29N 51°23' E 000°46'0 0.0
2014-Jul-22 07:32N 51°23' E 000°46'0 0.0
2014-Jul-22 06:11N 51°23' E 000°46'0 0.0
2014-Jul-22 05:11N 51°23' E 000°46'0 0.0
2014-Jul-22 04:23N 51°23' E 000°46'0 0.0
2014-Jul-22 03:11N 51°23' E 000°46'0 0.0
2014-Jul-22 02:23N 51°23' E 000°46'0 0.0
2014-Jul-22 01:11N 51°23' E 000°46'0 0.0
2014-Jul-21 19:29N 51°23' E 000°46'0 0.0
2014-Jul-21 17:29N 51°23' E 000°46'0 0.0
2014-Jul-21 14:14N 51°23' E 000°46'0 0.0
2014-Jul-21 10:29N 51°23' E 000°46'0 0.0
2014-Jul-21 08:23N 51°23' E 000°46'0 0.0
2014-Jul-21 07:29N 51°23' E 000°46'0 0.0
2014-Jul-21 06:31N 51°23' E 000°46'0 0.0
2014-Jul-21 05:13N 51°23' E 000°46'0 0.0
2014-Jul-21 04:28N 51°23' E 000°46'0 0.0
2014-Jul-20 23:19N 51°23' E 000°46'0 0.0
2014-Jul-20 22:04N 51°23' E 000°46'0 0.0
2014-Jul-20 21:16N 51°23' E 000°46'0 0.0
2014-Jul-20 20:31N 51°23' E 000°46'0 0.0
2014-Jul-20 19:31N 51°23' E 000°46'0 0.0
2014-Jul-20 18:31N 51°23' E 000°46'1 1.4
2014-Jul-20 17:33N 51°24' E 000°44'5 5.5
2014-Jul-20 16:33N 51°28' E 000°49'9 8.6
2014-Jul-20 15:33N 51°30' E 001°03'1111.4
2014-Jul-20 14:34N 51°29' E 001°21'4 4.2
2014-Jul-20 13:33N 51°25' E 001°25'0 0.1
2014-Jul-20 12:33N 51°25' E 001°24'0 0.0
2014-Jul-20 11:33N 51°25' E 001°24'0 0.0
2014-Jul-20 10:33N 51°25' E 001°24'0 0.0
2014-Jul-20 09:33N 51°25' E 001°24'0 0.0
2014-Jul-20 08:33N 51°25' E 001°24'0 0.1
2014-Jul-20 07:34N 51°25' E 001°24'0 0.1
2014-Jul-20 06:33N 51°25' E 001°24'0 0.0
2014-Jul-20 05:33N 51°25' E 001°24'0 0.0
2014-Jul-20 04:33N 51°25' E 001°24'0 0.0
2014-Jul-20 03:33N 51°25' E 001°24'0 0.0
2014-Jul-20 02:34N 51°25' E 001°24'0 0.0
2014-Jul-20 01:33N 51°25' E 001°24'0 0.0
2014-Jul-20 00:33N 51°25' E 001°24'0 0.1
2014-Jul-19 23:34N 51°25' E 001°24'0 0.0
2014-Jul-19 22:33N 51°25' E 001°24'0 0.0
2014-Jul-19 21:33N 51°25' E 001°24'0 0.0
2014-Jul-19 20:33N 51°25' E 001°24'0 0.0
2014-Jul-19 19:33N 51°25' E 001°24'0 0.1
2014-Jul-19 18:33N 51°25' E 001°24'0 0.1
2014-Jul-19 16:33N 51°25' E 001°24'0 0.0
2014-Jul-19 15:33N 51°25' E 001°24'0 0.0
2014-Jul-19 14:33N 51°25' E 001°24'0 0.0
2014-Jul-19 13:33N 51°25' E 001°24'0 0.0
2014-Jul-19 12:33N 51°25' E 001°24'0 0.0
2014-Jul-19 11:33N 51°25' E 001°24'0 0.1
2014-Jul-19 10:33N 51°25' E 001°24'0 0.0
2014-Jul-19 09:33N 51°25' E 001°24'0 0.0
2014-Jul-19 08:33N 51°25' E 001°24'0 0.4
2014-Jul-19 07:33N 51°25' E 001°25'9 8.6
2014-Jul-19 06:33N 51°20' E 001°36'1212.0
2014-Jul-19 05:34N 51°08' E 001°42'1111.2
2014-Jul-19 04:33N 50°60' E 001°30'38 9.4
2014-Jul-19 00:33N 50°29' E 000°55'8 8.5
2014-Jul-18 23:33N 50°27' E 000°43'7 7.5
2014-Jul-18 22:33N 50°26' E 000°31'14 6.7
2014-Jul-18 20:33N 50°23' E 000°11'13 6.6
2014-Jul-18 18:31N 50°21' W 000°10'7 6.9
2014-Jul-18 17:33N 50°20' W 000°21'9 7.1
2014-Jul-18 16:16N 50°19' W 000°35'6 8.2
2014-Jul-18 15:31N 50°19' W 000°45'1410.2
2014-Jul-18 14:09N 50°23' W 001°05'246 6.9
2014-Jul-17 02:33N 48°00' W 006°12'8 8.3
2014-Jul-17 01:33N 47°53' W 006°18'8 7.9
2014-Jul-17 00:33N 47°46' W 006°23'7 7.4
2014-Jul-16 23:33N 47°39' W 006°28'7 7.4
2014-Jul-16 22:33N 47°33' W 006°34'  
Track history (hours):
 
Tides and Currents Weather Stations Pressure Air Temp Water Temp Dewpoint Dewpoint Depression Visibility Wind Speed Wind Dir Waves Ship Positions

Parma

Last reported at 2014-Jul-26 18:34 UTC. Time now 2014-Jul-26 19:17 UTC.
Position N 52°36' E 001°44'.

MMSI: 279073176.

Date/timePositionNaut miles runAvg speedWind from/ knotsBaromVisibWave heightAir tempDewpointWater temp
2014-Jul-26 18:34N 52°36' E 001°44'1 0.6
2014-Jul-26 17:33N 52°35' E 001°44'2 1.6
2014-Jul-26 16:34N 52°34' E 001°45'0 0.4
2014-Jul-26 15:31N 52°34' E 001°46'0 0.1
2014-Jul-26 14:31N 52°34' E 001°46'0 0.0
2014-Jul-26 13:31N 52°34' E 001°46'0 0.0
2014-Jul-26 12:31N 52°34' E 001°46'0 0.1
2014-Jul-26 11:28N 52°34' E 001°46'0 0.1
2014-Jul-26 10:31N 52°34' E 001°46'0 0.0
2014-Jul-26 09:31N 52°34' E 001°46'0 0.0
2014-Jul-26 08:31N 52°34' E 001°46'0 0.0
2014-Jul-26 07:31N 52°34' E 001°46'0 0.0
2014-Jul-26 06:31N 52°34' E 001°46'0 0.0
2014-Jul-26 05:31N 52°34' E 001°46'0 0.0
2014-Jul-26 04:31N 52°34' E 001°46'0 0.1
2014-Jul-26 03:31N 52°34' E 001°46'0 0.0
2014-Jul-26 02:31N 52°34' E 001°46'0 0.0
2014-Jul-26 01:31N 52°34' E 001°46'0 0.0
2014-Jul-26 00:31N 52°34' E 001°46'0 0.1
2014-Jul-25 23:31N 52°34' E 001°46'1 0.9
2014-Jul-25 22:34N 52°34' E 001°47'9 9.3
2014-Jul-25 21:33N 52°25' E 001°53'10 9.3
2014-Jul-25 20:26N 52°15' E 001°52'8 9.4
2014-Jul-25 19:33N 52°06' E 001°51'9 9.2
2014-Jul-25 18:33N 51°57' E 001°49'1010.4
2014-Jul-25 17:34N 51°47' E 001°49'1010.4
2014-Jul-25 16:34N 51°37' E 001°47'1211.6
2014-Jul-25 15:34N 51°29' E 001°34'6 6.3
2014-Jul-25 14:34N 51°25' E 001°25'0 0.0
2014-Jul-25 13:34N 51°25' E 001°25'0 0.1
2014-Jul-25 12:34N 51°25' E 001°25'0 0.1
2014-Jul-25 11:33N 51°25' E 001°25'0 0.0
2014-Jul-25 10:33N 51°25' E 001°25'0 0.0
2014-Jul-25 09:33N 51°25' E 001°25'0 0.0
2014-Jul-25 08:33N 51°25' E 001°25'0 0.0
2014-Jul-25 07:34N 51°25' E 001°25'0 0.0
2014-Jul-25 06:34N 51°25' E 001°25'0 0.0
2014-Jul-25 05:34N 51°25' E 001°25'0 0.1
2014-Jul-25 04:34N 51°25' E 001°25'0 0.0
2014-Jul-25 03:34N 51°25' E 001°25'0 0.0
2014-Jul-25 02:33N 51°25' E 001°25'0 0.0
2014-Jul-25 01:34N 51°25' E 001°25'0 0.0
2014-Jul-25 00:33N 51°25' E 001°25'0 0.1
2014-Jul-24 23:34N 51°25' E 001°25'0 0.1
2014-Jul-24 22:33N 51°25' E 001°25'0 0.0
2014-Jul-24 21:33N 51°25' E 001°25'0 0.0
2014-Jul-24 20:33N 51°25' E 001°25'0 0.0
2014-Jul-24 19:33N 51°25' E 001°25'0 0.0
2014-Jul-24 18:33N 51°25' E 001°25'0 0.0
2014-Jul-24 17:33N 51°25' E 001°25'0 0.0
2014-Jul-24 16:34N 51°25' E 001°25'0 0.1
2014-Jul-24 15:33N 51°25' E 001°25'0 0.0
2014-Jul-24 14:33N 51°25' E 001°25'0 0.0
2014-Jul-24 13:33N 51°25' E 001°25'0 0.0
2014-Jul-24 12:33N 51°25' E 001°25'0 0.1
2014-Jul-24 11:33N 51°25' E 001°25'0 0.1
2014-Jul-24 10:33N 51°25' E 001°25'0 0.0
2014-Jul-24 09:33N 51°25' E 001°25'0 0.0
2014-Jul-24 08:33N 51°25' E 001°25'0 0.1
2014-Jul-24 07:33N 51°25' E 001°25'0 0.0
2014-Jul-24 06:33N 51°25' E 001°25'0 0.0
2014-Jul-24 05:33N 51°25' E 001°25'0 0.0
2014-Jul-24 04:33N 51°25' E 001°25'0 0.1
2014-Jul-24 03:33N 51°25' E 001°25'0 0.1
2014-Jul-24 02:33N 51°25' E 001°25'0 0.0
2014-Jul-24 01:33N 51°25' E 001°25'0 0.0
2014-Jul-24 00:33N 51°25' E 001°25'0 0.1
2014-Jul-23 23:33N 51°25' E 001°25'0 0.1
2014-Jul-23 22:33N 51°25' E 001°25'0 0.0
2014-Jul-23 21:33N 51°25' E 001°25'0 0.0
2014-Jul-23 20:33N 51°25' E 001°25'0 0.0
2014-Jul-23 19:33N 51°25' E 001°25'0 0.0
2014-Jul-23 18:33N 51°25' E 001°25'0 0.0
2014-Jul-23 17:33N 51°25' E 001°25'0 0.0
2014-Jul-23 16:33N 51°25' E 001°25'0 0.0
2014-Jul-23 15:33N 51°25' E 001°25'0 0.1
2014-Jul-23 14:33N 51°25' E 001°25'0 0.0
2014-Jul-23 13:33N 51°25' E 001°25'3 2.5
2014-Jul-23 12:33N 51°27' E 001°26'1212.1
2014-Jul-23 11:34N 51°29' E 001°07'1010.1
2014-Jul-23 10:33N 51°29' E 000°51'6 6.0
2014-Jul-23 09:32N 51°24' E 000°45'1 0.4
2014-Jul-23 07:14N 51°23' E 000°46'0 0.0
2014-Jul-23 05:20N 51°23' E 000°46'0 0.0
2014-Jul-23 04:23N 51°23' E 000°46'0 0.0
2014-Jul-23 03:14N 51°23' E 000°46'0 0.0
2014-Jul-23 02:32N 51°23' E 000°46'0 0.0
2014-Jul-23 01:32N 51°23' E 000°46'0 0.0
2014-Jul-23 00:29N 51°23' E 000°46'0 0.0
2014-Jul-22 23:23N 51°23' E 000°46'0 0.0
2014-Jul-22 22:32N 51°23' E 000°46'0 0.0
2014-Jul-22 21:23N 51°23' E 000°46'0 0.0
2014-Jul-22 20:26N 51°23' E 000°46'0 0.0
2014-Jul-22 14:05N 51°23' E 000°46'0 0.0
2014-Jul-22 10:23N 51°23' E 000°46'0 0.0
2014-Jul-22 08:29N 51°23' E 000°46'0 0.0
2014-Jul-22 07:32N 51°23' E 000°46'0 0.0
2014-Jul-22 06:11N 51°23' E 000°46'0 0.0
2014-Jul-22 05:11N 51°23' E 000°46'0 0.0
2014-Jul-22 04:23N 51°23' E 000°46'0 0.0
2014-Jul-22 03:11N 51°23' E 000°46'0 0.0
2014-Jul-22 02:23N 51°23' E 000°46'0 0.0
2014-Jul-22 01:11N 51°23' E 000°46'0 0.0
2014-Jul-21 19:29N 51°23' E 000°46'0 0.0
2014-Jul-21 17:29N 51°23' E 000°46'0 0.0
2014-Jul-21 14:14N 51°23' E 000°46'0 0.0
2014-Jul-21 10:29N 51°23' E 000°46'0 0.0
2014-Jul-21 08:23N 51°23' E 000°46'0 0.0
2014-Jul-21 07:29N 51°23' E 000°46'0 0.0
2014-Jul-21 06:31N 51°23' E 000°46'0 0.0
2014-Jul-21 05:13N 51°23' E 000°46'0 0.0
2014-Jul-21 04:28N 51°23' E 000°46'0 0.0
2014-Jul-20 23:19N 51°23' E 000°46'0 0.0
2014-Jul-20 22:04N 51°23' E 000°46'0 0.0
2014-Jul-20 21:16N 51°23' E 000°46'0 0.0
2014-Jul-20 20:31N 51°23' E 000°46'0 0.0
2014-Jul-20 19:31N 51°23' E 000°46'0 0.0
2014-Jul-20 18:31N 51°23' E 000°46'1 1.4
2014-Jul-20 17:33N 51°24' E 000°44'5 5.5
2014-Jul-20 16:33N 51°28' E 000°49'9 8.6
2014-Jul-20 15:33N 51°30' E 001°03'1111.4
2014-Jul-20 14:34N 51°29' E 001°21'4 4.2
2014-Jul-20 13:33N 51°25' E 001°25'0 0.1
2014-Jul-20 12:33N 51°25' E 001°24'0 0.0
2014-Jul-20 11:33N 51°25' E 001°24'0 0.0
2014-Jul-20 10:33N 51°25' E 001°24'0 0.0
2014-Jul-20 09:33N 51°25' E 001°24'0 0.0
2014-Jul-20 08:33N 51°25' E 001°24'0 0.1
2014-Jul-20 07:34N 51°25' E 001°24'0 0.1
2014-Jul-20 06:33N 51°25' E 001°24'0 0.0
2014-Jul-20 05:33N 51°25' E 001°24'0 0.0
2014-Jul-20 04:33N 51°25' E 001°24'0 0.0
2014-Jul-20 03:33N 51°25' E 001°24'0 0.0
2014-Jul-20 02:34N 51°25' E 001°24'0 0.0
2014-Jul-20 01:33N 51°25' E 001°24'0 0.0
2014-Jul-20 00:33N 51°25' E 001°24'0 0.1
2014-Jul-19 23:34N 51°25' E 001°24'0 0.0
2014-Jul-19 22:33N 51°25' E 001°24'0 0.0
2014-Jul-19 21:33N 51°25' E 001°24'0 0.0
2014-Jul-19 20:33N 51°25' E 001°24'0 0.0
2014-Jul-19 19:33N 51°25' E 001°24'0 0.1
2014-Jul-19 18:33N 51°25' E 001°24'0 0.1
2014-Jul-19 16:33N 51°25' E 001°24'0 0.0
2014-Jul-19 15:33N 51°25' E 001°24'0 0.0
2014-Jul-19 14:33N 51°25' E 001°24'0 0.0
2014-Jul-19 13:33N 51°25' E 001°24'0 0.0
2014-Jul-19 12:33N 51°25' E 001°24'0 0.0
2014-Jul-19 11:33N 51°25' E 001°24'0 0.1
2014-Jul-19 10:33N 51°25' E 001°24'0 0.0
2014-Jul-19 09:33N 51°25' E 001°24'0 0.0
2014-Jul-19 08:33N 51°25' E 001°24'0 0.4
2014-Jul-19 07:33N 51°25' E 001°25'9 8.6
2014-Jul-19 06:33N 51°20' E 001°36'1212.0
2014-Jul-19 05:34N 51°08' E 001°42'1111.2
2014-Jul-19 04:33N 50°60' E 001°30'38 9.4
2014-Jul-19 00:33N 50°29' E 000°55'8 8.5
2014-Jul-18 23:33N 50°27' E 000°43'7 7.5
2014-Jul-18 22:33N 50°26' E 000°31'14 6.7
2014-Jul-18 20:33N 50°23' E 000°11'13 6.6
2014-Jul-18 18:31N 50°21' W 000°10'7 6.9
2014-Jul-18 17:33N 50°20' W 000°21'9 7.1
2014-Jul-18 16:16N 50°19' W 000°35'6 8.2
2014-Jul-18 15:31N 50°19' W 000°45'1410.2
2014-Jul-18 14:09N 50°23' W 001°05'246 6.9
2014-Jul-17 02:33N 48°00' W 006°12'8 8.3
2014-Jul-17 01:33N 47°53' W 006°18'8 7.9
2014-Jul-17 00:33N 47°46' W 006°23'7 7.4
2014-Jul-16 23:33N 47°39' W 006°28'7 7.4
2014-Jul-16 22:33N 47°33' W 006°34'  

Dump ship's entire track history